地図

経路データ

SID SEASON NUMBER BASIN SUBBASIN NAME ISO_TIME NATURE LAT LON WMO_WIND WMO_PRES WMO_AGENCY TRACK_TYPE DIST2LAND LANDFALL IFLAG USA_AGENCY USA_ATCF_ID USA_LAT USA_LON USA_RECORD USA_STATUS USA_WIND USA_PRES USA_SSHS USA_R34_NE USA_R34_SE USA_R34_SW USA_R34_NW USA_R50_NE USA_R50_SE USA_R50_SW USA_R50_NW USA_R64_NE USA_R64_SE USA_R64_SW USA_R64_NW USA_POCI USA_ROCI USA_RMW USA_EYE TOKYO_LAT TOKYO_LON TOKYO_GRADE TOKYO_WIND TOKYO_PRES TOKYO_R50_DIR TOKYO_R50_LONG TOKYO_R50_SHORT TOKYO_R30_DIR TOKYO_R30_LONG TOKYO_R30_SHORT TOKYO_LAND CMA_LAT CMA_LON CMA_CAT CMA_WIND CMA_PRES HKO_LAT HKO_LON HKO_CAT HKO_WIND HKO_PRES NEWDELHI_LAT NEWDELHI_LON NEWDELHI_GRADE NEWDELHI_WIND NEWDELHI_PRES NEWDELHI_CI NEWDELHI_DP NEWDELHI_POCI REUNION_LAT REUNION_LON REUNION_TYPE REUNION_WIND REUNION_PRES REUNION_TNUM REUNION_CI REUNION_RMW REUNION_R34_NE REUNION_R34_SE REUNION_R34_SW REUNION_R34_NW REUNION_R50_NE REUNION_R50_SE REUNION_R50_SW REUNION_R50_NW REUNION_R64_NE REUNION_R64_SE REUNION_R64_SW REUNION_R64_NW BOM_LAT BOM_LON BOM_TYPE BOM_WIND BOM_PRES BOM_TNUM BOM_CI BOM_RMW BOM_R34_NE BOM_R34_SE BOM_R34_SW BOM_R34_NW BOM_R50_NE BOM_R50_SE BOM_R50_SW BOM_R50_NW BOM_R64_NE BOM_R64_SE BOM_R64_SW BOM_R64_NW BOM_ROCI BOM_POCI BOM_EYE BOM_POS_METHOD BOM_PRES_METHOD NADI_LAT NADI_LON NADI_CAT NADI_WIND NADI_PRES WELLINGTON_LAT WELLINGTON_LON WELLINGTON_WIND WELLINGTON_PRES DS824_LAT DS824_LON DS824_STAGE DS824_WIND DS824_PRES TD9636_LAT TD9636_LON TD9636_STAGE TD9636_WIND TD9636_PRES TD9635_LAT TD9635_LON TD9635_WIND TD9635_PRES TD9635_ROCI NEUMANN_LAT NEUMANN_LON NEUMANN_CLASS NEUMANN_WIND NEUMANN_PRES MLC_LAT MLC_LON MLC_CLASS MLC_WIND MLC_PRES USA_GUST BOM_GUST BOM_GUST_PER REUNION_GUST REUNION_GUST_PER USA_SEAHGT USA_SEARAD_NE USA_SEARAD_SE USA_SEARAD_SW USA_SEARAD_NW STORM_SPEED STORM_DIR
1898213N16128 1898 23 WP MM NOT_NAMED 1898-07-31 16:00:00 NR 16.2000 128.000 main 464 361 __________O___ -1 16.2000 128.000 7 52 285
1898213N16128 1898 23 WP MM NOT_NAMED 1898-07-31 18:00:00 NR 16.6389 126.252 main 361 129 __________P___ -1 16.6389 126.252 7 51 284
1898213N16128 1898 23 WP MM NOT_NAMED 1898-07-31 21:00:00 NR 17.2424 123.734 main 129 0 __________P___ -1 17.2424 123.734 7 47 284
1898213N16128 1898 23 WP MM NOT_NAMED 1898-08-01 00:00:00 NR 17.7439 121.522 main 0 0 __________P___ -1 17.7439 121.522 7 38 283
1898213N16128 1898 23 WP MM NOT_NAMED 1898-08-01 03:00:00 NR 18.1116 119.820 main 73 84 __________P___ -1 18.1116 119.820 7 31 283
1898213N16128 1898 23 WP MM NOT_NAMED 1898-08-01 04:00:00 NR 18.2000 119.400 main 116 116 __________O___ -1 18.2000 119.400 7 20 282
1898213N16128 1898 23 WP MM NOT_NAMED 1898-08-01 06:00:00 NR 18.3242 118.804 main 176 176 __________P___ -1 18.3242 118.804 7 12 282
1898213N16128 1898 23 WP MM NOT_NAMED 1898-08-01 09:00:00 NR 18.4090 118.400 main 219 219 __________P___ -1 18.4090 118.400 7 4 283
1898213N16128 1898 23 WP MM NOT_NAMED 1898-08-01 12:00:00 NR 18.4187 118.370 main 219 210 __________P___ -1 18.4187 118.370 7 1 95
1898213N16128 1898 23 WP MM NOT_NAMED 1898-08-01 15:00:00 NR 18.4026 118.476 main 210 210 __________P___ -1 18.4026 118.476 7 2 99
1898213N16128 1898 23 WP MM NOT_NAMED 1898-08-01 16:00:00 NR 18.4000 118.500 main 210 210 __________O___ -1 18.4000 118.500 7 2 282
1898213N16128 1898 23 WP MM NOT_NAMED 1898-08-01 18:00:00 NR 18.4254 118.358 main 219 229 __________P___ -1 18.4254 118.358 7 4 281
1898213N16128 1898 23 WP MM NOT_NAMED 1898-08-01 21:00:00 NR 18.4634 118.152 main 243 253 __________P___ -1 18.4634 118.152 7 4 282
1898213N16128 1898 23 WP MM NOT_NAMED 1898-08-02 00:00:00 NR 18.5096 117.953 main 263 273 __________P___ -1 18.5096 117.953 7 4 287
1898213N16128 1898 23 WP MM NOT_NAMED 1898-08-02 03:00:00 NR 18.5733 117.762 main 286 286 __________P___ -1 18.5733 117.762 7 4 291
1898213N16128 1898 23 WP MM NOT_NAMED 1898-08-02 04:00:00 NR 18.6000 117.700 main 296 296 __________O___ -1 18.6000 117.700 7 4 297
1898213N16128 1898 23 WP MM NOT_NAMED 1898-08-02 06:00:00 NR 18.6635 117.575 main 310 310 __________P___ -1 18.6635 117.575 7 4 301
1898213N16128 1898 23 WP MM NOT_NAMED 1898-08-02 09:00:00 NR 18.7777 117.394 main 334 334 __________P___ -1 18.7777 117.394 7 4 306
1898213N16128 1898 23 WP MM NOT_NAMED 1898-08-02 12:00:00 NR 18.9091 117.220 main 358 358 __________P___ -1 18.9091 117.220 7 4 310
1898213N16128 1898 23 WP MM NOT_NAMED 1898-08-02 15:00:00 NR 19.0513 117.054 main 375 385 __________P___ -1 19.0513 117.054 7 4 313
1898213N16128 1898 23 WP MM NOT_NAMED 1898-08-02 16:00:00 NR 19.1000 117.000 main 385 385 __________O___ -1 19.1000 117.000 3 4 313
1898213N16128 1898 23 WP MM NOT_NAMED 1898-08-02 18:00:00 NR 19.1916 116.897 main 398 391 __________P___ -1 19.1916 116.897 3 4 315
1898213N16128 1898 23 WP MM NOT_NAMED 1898-08-02 21:00:00 NR 19.3353 116.748 main 391 367 __________P___ -1 19.3353 116.748 3 4 317
1898213N16128 1898 23 WP MM NOT_NAMED 1898-08-03 00:00:00 NR 19.4866 116.602 main 367 354 __________P___ -1 19.4866 116.602 3 4 318
1898213N16128 1898 23 WP MM NOT_NAMED 1898-08-03 03:00:00 NR 19.6454 116.452 main 354 341 __________P___ -1 19.6454 116.452 3 4 318
1898213N16128 1898 23 WP MM NOT_NAMED 1898-08-03 04:00:00 NR 19.7000 116.400 main 341 328 __________O___ -1 19.7000 116.400 4 5 318
1898213N16128 1898 23 WP MM NOT_NAMED 1898-08-03 06:00:00 NR 19.8135 116.292 main 328 303 __________P___ -1 19.8135 116.292 4 5 318
1898213N16128 1898 23 WP MM NOT_NAMED 1898-08-03 09:00:00 NR 19.9902 116.123 main 303 277 __________P___ -1 19.9902 116.123 4 5 318
1898213N16128 1898 23 WP MM NOT_NAMED 1898-08-03 12:00:00 NR 20.1691 115.947 main 277 263 __________P___ -1 20.1691 115.947 4 5 316
1898213N16128 1898 23 WP MM NOT_NAMED 1898-08-03 15:00:00 NR 20.3438 115.763 main 263 248 __________P___ -1 20.3438 115.763 4 5 315
1898213N16128 1898 23 WP MM NOT_NAMED 1898-08-03 16:00:00 NR 20.4000 115.700 main 248 235 __________O___ -1 20.4000 115.700 4 5 316
1898213N16128 1898 23 WP MM NOT_NAMED 1898-08-03 18:00:00 NR 20.5107 115.591 main 235 207 __________P___ -1 20.5107 115.591 4 5 316
1898213N16128 1898 23 WP MM NOT_NAMED 1898-08-03 21:00:00 NR 20.6707 115.421 main 207 191 __________P___ -1 20.6707 115.421 4 5 312
1898213N16128 1898 23 WP MM NOT_NAMED 1898-08-04 00:00:00 NR 20.8207 115.227 main 191 162 __________P___ -1 20.8207 115.227 4 5 306
1898213N16128 1898 23 WP MM NOT_NAMED 1898-08-04 03:00:00 NR 20.9578 114.991 main 162 158 __________P___ -1 20.9578 114.991 4 5 300
1898213N16128 1898 23 WP MM NOT_NAMED 1898-08-04 04:00:00 NR 21.0000 114.900 main 158 140 __________O___ -1 21.0000 114.900 4 6 295
1898213N16128 1898 23 WP MM NOT_NAMED 1898-08-04 06:00:00 NR 21.0833 114.698 main 140 123 __________P___ -1 21.0833 114.698 4 7 291
1898213N16128 1898 23 WP MM NOT_NAMED 1898-08-04 09:00:00 NR 21.1958 114.351 main 123 113 __________P___ -1 21.1958 114.351 4 7 287
1898213N16128 1898 23 WP MM NOT_NAMED 1898-08-04 12:00:00 NR 21.2932 113.962 main 113 76 __________P___ -1 21.2932 113.962 4 8 283
1898213N16128 1898 23 WP MM NOT_NAMED 1898-08-04 15:00:00 NR 21.3758 113.544 main 76 69 __________P___ -1 21.3758 113.544 4 8 282
1898213N16128 1898 23 WP MM NOT_NAMED 1898-08-04 16:00:00 NR 21.4000 113.400 main 69 56 __________O___ -1 21.4000 113.400 4 8 279
1898213N16128 1898 23 WP MM NOT_NAMED 1898-08-04 18:00:00 NR 21.4393 113.125 main 56 35 __________P___ -1 21.4393 113.125 4 8 277
1898213N16128 1898 23 WP MM NOT_NAMED 1898-08-04 21:00:00 NR 21.4855 112.693 main 35 22 __________P___ -1 21.4855 112.693 4 8 276
1898213N16128 1898 23 WP MM NOT_NAMED 1898-08-05 00:00:00 NR 21.5279 112.239 main 22 0 __________P___ -1 21.5279 112.239 4 9 276
1898213N16128 1898 23 WP MM NOT_NAMED 1898-08-05 03:00:00 NR 21.5789 111.764 main 0 0 __________P___ -1 21.5789 111.764 4 9 277
1898213N16128 1898 23 WP MM NOT_NAMED 1898-08-05 04:00:00 NR 21.6000 111.600 main 0 0 __________O___ -1 21.6000 111.600 4 9 280
1898213N16128 1898 23 WP MM NOT_NAMED 1898-08-05 06:00:00 NR 21.6577 111.270 main 0 0 __________P___ -1 21.6577 111.270 4 10 281
1898213N16128 1898 23 WP MM NOT_NAMED 1898-08-05 09:00:00 NR 21.7570 110.756 main 0 0 __________P___ -1 21.7570 110.756 4 10 282
1898213N16128 1898 23 WP MM NOT_NAMED 1898-08-05 12:00:00 NR 21.8633 110.224 main 0 0 __________P___ -1 21.8633 110.224 4 10 282
1898213N16128 1898 23 WP MM NOT_NAMED 1898-08-05 15:00:00 NR 21.9674 109.682 main 0 0 __________P___ -1 21.9674 109.682 4 10 282
1898213N16128 1898 23 WP MM NOT_NAMED 1898-08-05 16:00:00 NR 22.0000 109.500 main 0 0 __________O___ -1 22.0000 109.500 4 10 280
1898213N16128 1898 23 WP MM NOT_NAMED 1898-08-05 18:00:00 NR 22.0606 109.135 main 0 0 __________P___ -1 22.0606 109.135 4 10 279
1898213N16128 1898 23 WP MM NOT_NAMED 1898-08-05 21:00:00 NR 22.1416 108.586 main 0 0 __________P___ -1 22.1416 108.586 4 10 279
1898213N16128 1898 23 WP MM NOT_NAMED 1898-08-06 00:00:00 NR 22.2133 108.036 main 0 0 __________P___ -1 22.2133 108.036 4 10 278
1898213N16128 1898 23 WP MM NOT_NAMED 1898-08-06 03:00:00 NR 22.2789 107.484 main 0 0 __________P___ -1 22.2789 107.484 4 10 277
1898213N16128 1898 23 WP MM NOT_NAMED 1898-08-06 04:00:00 NR 22.3000 107.300 main 0 __________O___ -1 22.3000 107.300 4 10 277

デジタル台風データ・検索

IBTrACS Databaseについて

本データベースは、米国NOAAが公開する1842年以降の世界の熱帯低気圧のベストトラックデータアーカイブInternational Best Track Archive for Climate Stewardship (IBTrACS)を、ウェブで閲覧しやすい形式に変換したものです。

最終更新日:2021-12-01